sensor_id;sensor_type;location;lat;lon;timestamp;temperature;humidity
5639;DHT22;2841;44.526;11.360;2023-04-24T00:01:20;18.10;53.90
5639;DHT22;2841;44.526;11.360;2023-04-24T00:03:47;18.00;54.00
5639;DHT22;2841;44.526;11.360;2023-04-24T00:06:14;18.00;54.10
5639;DHT22;2841;44.526;11.360;2023-04-24T00:08:42;18.00;54.20
5639;DHT22;2841;44.526;11.360;2023-04-24T00:11:08;18.00;54.20
5639;DHT22;2841;44.526;11.360;2023-04-24T00:13:35;18.00;54.30
5639;DHT22;2841;44.526;11.360;2023-04-24T00:16:04;18.00;54.50
5639;DHT22;2841;44.526;11.360;2023-04-24T00:18:31;18.00;54.50
5639;DHT22;2841;44.526;11.360;2023-04-24T00:20:57;18.00;54.80
5639;DHT22;2841;44.526;11.360;2023-04-24T00:23:24;18.00;55.00
5639;DHT22;2841;44.526;11.360;2023-04-24T00:25:51;18.00;55.00
5639;DHT22;2841;44.526;11.360;2023-04-24T00:28:18;18.00;55.00
5639;DHT22;2841;44.526;11.360;2023-04-24T00:30:44;18.00;55.00
5639;DHT22;2841;44.526;11.360;2023-04-24T00:33:12;18.00;54.90
5639;DHT22;2841;44.526;11.360;2023-04-24T00:35:40;18.00;55.00
5639;DHT22;2841;44.526;11.360;2023-04-24T00:38:06;18.00;55.10
5639;DHT22;2841;44.526;11.360;2023-04-24T00:40:33;17.90;55.10
5639;DHT22;2841;44.526;11.360;2023-04-24T00:43:00;17.90;55.50
5639;DHT22;2841;44.526;11.360;2023-04-24T00:45:26;17.80;55.20
5639;DHT22;2841;44.526;11.360;2023-04-24T00:47:53;17.70;55.30
5639;DHT22;2841;44.526;11.360;2023-04-24T00:50:21;17.80;55.40
5639;DHT22;2841;44.526;11.360;2023-04-24T00:52:48;17.70;55.50
5639;DHT22;2841;44.526;11.360;2023-04-24T00:55:16;17.70;55.50
5639;DHT22;2841;44.526;11.360;2023-04-24T00:57:42;17.70;55.60
5639;DHT22;2841;44.526;11.360;2023-04-24T01:00:10;17.60;55.60
5639;DHT22;2841;44.526;11.360;2023-04-24T01:02:37;17.60;55.80
5639;DHT22;2841;44.526;11.360;2023-04-24T01:05:09;17.40;55.80
5639;DHT22;2841;44.526;11.360;2023-04-24T01:07:38;17.40;56.00
5639;DHT22;2841;44.526;11.360;2023-04-24T01:10:05;17.30;56.10
5639;DHT22;2841;44.526;11.360;2023-04-24T01:12:33;17.30;56.20
5639;DHT22;2841;44.526;11.360;2023-04-24T01:15:00;17.20;56.30
5639;DHT22;2841;44.526;11.360;2023-04-24T01:17:27;17.20;56.40
5639;DHT22;2841;44.526;11.360;2023-04-24T01:19:53;17.10;56.40
5639;DHT22;2841;44.526;11.360;2023-04-24T01:22:23;17.10;56.50
5639;DHT22;2841;44.526;11.360;2023-04-24T01:24:50;17.10;57.30
5639;DHT22;2841;44.526;11.360;2023-04-24T01:27:17;17.10;56.80
5639;DHT22;2841;44.526;11.360;2023-04-24T01:29:44;17.00;56.80
5639;DHT22;2841;44.526;11.360;2023-04-24T01:32:11;16.90;57.00
5639;DHT22;2841;44.526;11.360;2023-04-24T01:34:38;16.80;57.10
5639;DHT22;2841;44.526;11.360;2023-04-24T01:37:04;16.90;57.30
5639;DHT22;2841;44.526;11.360;2023-04-24T01:39:32;17.00;57.30
5639;DHT22;2841;44.526;11.360;2023-04-24T01:41:59;17.00;57.20
5639;DHT22;2841;44.526;11.360;2023-04-24T01:44:26;17.00;57.20
5639;DHT22;2841;44.526;11.360;2023-04-24T01:46:54;17.00;57.30
5639;DHT22;2841;44.526;11.360;2023-04-24T01:49:21;17.00;57.40
5639;DHT22;2841;44.526;11.360;2023-04-24T01:51:48;16.90;57.40
5639;DHT22;2841;44.526;11.360;2023-04-24T01:54:15;17.00;57.60
5639;DHT22;2841;44.526;11.360;2023-04-24T01:56:43;17.00;57.60
5639;DHT22;2841;44.526;11.360;2023-04-24T01:59:10;17.00;57.60
5639;DHT22;2841;44.526;11.360;2023-04-24T02:01:38;17.00;57.70
5639;DHT22;2841;44.526;11.360;2023-04-24T02:04:05;17.00;57.80
5639;DHT22;2841;44.526;11.360;2023-04-24T02:06:32;17.00;57.80
5639;DHT22;2841;44.526;11.360;2023-04-24T02:08:58;17.00;57.90
5639;DHT22;2841;44.526;11.360;2023-04-24T02:11:25;17.00;57.90
5639;DHT22;2841;44.526;11.360;2023-04-24T02:13:53;17.10;58.10
5639;DHT22;2841;44.526;11.360;2023-04-24T02:16:20;17.10;58.10
5639;DHT22;2841;44.526;11.360;2023-04-24T02:18:47;17.20;58.10
5639;DHT22;2841;44.526;11.360;2023-04-24T02:21:14;17.30;58.00
5639;DHT22;2841;44.526;11.360;2023-04-24T02:23:40;17.40;58.00
5639;DHT22;2841;44.526;11.360;2023-04-24T02:26:07;17.40;58.10
5639;DHT22;2841;44.526;11.360;2023-04-24T02:28:34;16.00;56.90
5639;DHT22;2841;44.526;11.360;2023-04-24T02:31:02;17.50;58.20
5639;DHT22;2841;44.526;11.360;2023-04-24T02:33:29;17.50;58.80
5639;DHT22;2841;44.526;11.360;2023-04-24T02:35:56;17.50;58.20
5639;DHT22;2841;44.526;11.360;2023-04-24T02:38:22;17.50;58.30
5639;DHT22;2841;44.526;11.360;2023-04-24T02:40:49;17.50;58.40
5639;DHT22;2841;44.526;11.360;2023-04-24T02:43:16;17.60;58.50
5639;DHT22;2841;44.526;11.360;2023-04-24T02:45:43;17.60;58.50
5639;DHT22;2841;44.526;11.360;2023-04-24T02:48:11;17.70;58.70
5639;DHT22;2841;44.526;11.360;2023-04-24T02:50:38;17.70;58.80
5639;DHT22;2841;44.526;11.360;2023-04-24T02:53:04;17.70;59.00
5639;DHT22;2841;44.526;11.360;2023-04-24T02:55:31;17.70;59.10
5639;DHT22;2841;44.526;11.360;2023-04-24T02:57:58;17.70;59.30
5639;DHT22;2841;44.526;11.360;2023-04-24T03:00:25;17.60;59.40
5639;DHT22;2841;44.526;11.360;2023-04-24T03:02:52;17.60;59.60
5639;DHT22;2841;44.526;11.360;2023-04-24T03:05:20;17.50;59.60
5639;DHT22;2841;44.526;11.360;2023-04-24T03:07:47;17.50;59.80
5639;DHT22;2841;44.526;11.360;2023-04-24T03:10:13;17.50;59.90
5639;DHT22;2841;44.526;11.360;2023-04-24T03:12:40;17.50;60.00
5639;DHT22;2841;44.526;11.360;2023-04-24T03:15:08;17.50;60.20
5639;DHT22;2841;44.526;11.360;2023-04-24T03:17:35;17.50;60.30
5639;DHT22;2841;44.526;11.360;2023-04-24T03:20:02;17.40;60.50
5639;DHT22;2841;44.526;11.360;2023-04-24T03:22:31;17.40;60.60
5639;DHT22;2841;44.526;11.360;2023-04-24T03:24:59;17.40;60.80
5639;DHT22;2841;44.526;11.360;2023-04-24T03:27:25;17.40;61.00
5639;DHT22;2841;44.526;11.360;2023-04-24T03:29:52;17.30;61.30
5639;DHT22;2841;44.526;11.360;2023-04-24T03:32:20;17.20;61.40
5639;DHT22;2841;44.526;11.360;2023-04-24T03:34:47;17.20;61.70
5639;DHT22;2841;44.526;11.360;2023-04-24T03:37:14;17.20;61.90
5639;DHT22;2841;44.526;11.360;2023-04-24T03:39:42;17.20;62.00
5639;DHT22;2841;44.526;11.360;2023-04-24T03:42:09;17.10;62.20
5639;DHT22;2841;44.526;11.360;2023-04-24T03:44:36;17.10;62.30
5639;DHT22;2841;44.526;11.360;2023-04-24T03:47:02;17.10;62.40
5639;DHT22;2841;44.526;11.360;2023-04-24T03:49:29;17.10;62.50
5639;DHT22;2841;44.526;11.360;2023-04-24T03:51:56;17.10;62.80
5639;DHT22;2841;44.526;11.360;2023-04-24T03:54:22;17.10;62.90
5639;DHT22;2841;44.526;11.360;2023-04-24T03:56:50;17.10;63.00
5639;DHT22;2841;44.526;11.360;2023-04-24T03:59:17;17.10;63.20
5639;DHT22;2841;44.526;11.360;2023-04-24T04:01:44;17.10;63.80
5639;DHT22;2841;44.526;11.360;2023-04-24T04:04:11;17.00;64.10
5639;DHT22;2841;44.526;11.360;2023-04-24T04:06:38;17.00;64.10
5639;DHT22;2841;44.526;11.360;2023-04-24T04:09:05;16.90;64.20
5639;DHT22;2841;44.526;11.360;2023-04-24T04:11:32;16.90;64.40
5639;DHT22;2841;44.526;11.360;2023-04-24T04:14:00;16.80;64.50
5639;DHT22;2841;44.526;11.360;2023-04-24T04:16:27;16.70;64.60
5639;DHT22;2841;44.526;11.360;2023-04-24T04:18:53;16.60;64.70
5639;DHT22;2841;44.526;11.360;2023-04-24T04:21:20;16.50;65.10
5639;DHT22;2841;44.526;11.360;2023-04-24T04:23:47;16.40;65.20
5639;DHT22;2841;44.526;11.360;2023-04-24T04:26:14;16.20;65.40
5639;DHT22;2841;44.526;11.360;2023-04-24T04:28:41;16.20;65.70
5639;DHT22;2841;44.526;11.360;2023-04-24T04:31:11;16.00;65.80
5639;DHT22;2841;44.526;11.360;2023-04-24T04:33:38;15.90;66.40
5639;DHT22;2841;44.526;11.360;2023-04-24T04:36:05;15.70;67.80
5639;DHT22;2841;44.526;11.360;2023-04-24T04:38:31;15.50;68.70
5639;DHT22;2841;44.526;11.360;2023-04-24T04:40:59;15.40;69.20
5639;DHT22;2841;44.526;11.360;2023-04-24T04:43:25;15.30;68.60
5639;DHT22;2841;44.526;11.360;2023-04-24T04:45:52;15.30;69.00
5639;DHT22;2841;44.526;11.360;2023-04-24T04:48:21;15.30;69.10
5639;DHT22;2841;44.526;11.360;2023-04-24T04:50:48;15.30;69.20
5639;DHT22;2841;44.526;11.360;2023-04-24T04:53:15;15.20;69.20
5639;DHT22;2841;44.526;11.360;2023-04-24T04:55:41;15.20;69.10
5639;DHT22;2841;44.526;11.360;2023-04-24T04:58:08;15.20;69.20
5639;DHT22;2841;44.526;11.360;2023-04-24T05:00:35;15.20;69.20
5639;DHT22;2841;44.526;11.360;2023-04-24T05:03:02;15.10;69.90
5639;DHT22;2841;44.526;11.360;2023-04-24T05:05:30;15.10;69.50
5639;DHT22;2841;44.526;11.360;2023-04-24T05:07:57;15.10;69.60
5639;DHT22;2841;44.526;11.360;2023-04-24T05:10:24;15.10;69.50
5639;DHT22;2841;44.526;11.360;2023-04-24T05:12:51;15.10;69.60
5639;DHT22;2841;44.526;11.360;2023-04-24T05:15:17;15.10;69.60
5639;DHT22;2841;44.526;11.360;2023-04-24T05:17:44;15.10;70.10
5639;DHT22;2841;44.526;11.360;2023-04-24T05:20:11;15.10;70.60
5639;DHT22;2841;44.526;11.360;2023-04-24T05:22:39;15.10;70.40
5639;DHT22;2841;44.526;11.360;2023-04-24T05:25:06;15.00;70.60
5639;DHT22;2841;44.526;11.360;2023-04-24T05:27:33;15.00;70.70
5639;DHT22;2841;44.526;11.360;2023-04-24T05:29:59;15.00;70.60
5639;DHT22;2841;44.526;11.360;2023-04-24T05:32:26;15.00;70.50
5639;DHT22;2841;44.526;11.360;2023-04-24T05:34:53;15.10;70.50
5639;DHT22;2841;44.526;11.360;2023-04-24T05:37:20;15.10;70.50
5639;DHT22;2841;44.526;11.360;2023-04-24T05:39:48;15.10;70.50
5639;DHT22;2841;44.526;11.360;2023-04-24T05:42:15;15.20;70.40
5639;DHT22;2841;44.526;11.360;2023-04-24T05:44:42;15.20;70.60
5639;DHT22;2841;44.526;11.360;2023-04-24T05:47:09;15.20;70.60
5639;DHT22;2841;44.526;11.360;2023-04-24T05:49:35;15.10;70.80
5639;DHT22;2841;44.526;11.360;2023-04-24T05:52:02;15.10;71.30
5639;DHT22;2841;44.526;11.360;2023-04-24T05:54:30;15.10;72.30
5639;DHT22;2841;44.526;11.360;2023-04-24T05:56:58;15.10;72.00
5639;DHT22;2841;44.526;11.360;2023-04-24T05:59:26;15.10;72.50
5639;DHT22;2841;44.526;11.360;2023-04-24T06:01:53;15.00;73.10
5639;DHT22;2841;44.526;11.360;2023-04-24T06:04:20;15.00;73.00
5639;DHT22;2841;44.526;11.360;2023-04-24T06:06:47;15.00;73.10
5639;DHT22;2841;44.526;11.360;2023-04-24T06:09:16;15.00;73.10
5639;DHT22;2841;44.526;11.360;2023-04-24T06:11:43;15.00;73.00
5639;DHT22;2841;44.526;11.360;2023-04-24T06:14:11;15.10;73.10
5639;DHT22;2841;44.526;11.360;2023-04-24T06:16:38;15.10;73.00
5639;DHT22;2841;44.526;11.360;2023-04-24T06:19:05;15.10;73.20
5639;DHT22;2841;44.526;11.360;2023-04-24T06:21:31;15.20;73.20
5639;DHT22;2841;44.526;11.360;2023-04-24T06:23:58;15.30;73.20
5639;DHT22;2841;44.526;11.360;2023-04-24T06:26:25;15.30;73.20
5639;DHT22;2841;44.526;11.360;2023-04-24T06:28:52;15.40;73.20
5639;DHT22;2841;44.526;11.360;2023-04-24T06:31:21;15.40;73.30
5639;DHT22;2841;44.526;11.360;2023-04-24T06:33:48;15.40;73.50
5639;DHT22;2841;44.526;11.360;2023-04-24T06:36:15;15.50;73.50
5639;DHT22;2841;44.526;11.360;2023-04-24T06:38:42;15.60;73.60
5639;DHT22;2841;44.526;11.360;2023-04-24T06:41:09;15.60;73.50
5639;DHT22;2841;44.526;11.360;2023-04-24T06:43:36;15.70;73.60
5639;DHT22;2841;44.526;11.360;2023-04-24T06:46:02;15.70;73.50
5639;DHT22;2841;44.526;11.360;2023-04-24T06:48:30;15.70;73.60
5639;DHT22;2841;44.526;11.360;2023-04-24T06:50:57;15.80;73.80
5639;DHT22;2841;44.526;11.360;2023-04-24T06:53:24;15.90;73.80
5639;DHT22;2841;44.526;11.360;2023-04-24T06:55:50;15.90;73.60
5639;DHT22;2841;44.526;11.360;2023-04-24T06:58:17;16.00;73.60
5639;DHT22;2841;44.526;11.360;2023-04-24T07:00:44;16.10;73.70
5639;DHT22;2841;44.526;11.360;2023-04-24T07:03:11;16.20;73.70
5639;DHT22;2841;44.526;11.360;2023-04-24T07:05:39;16.30;73.70
5639;DHT22;2841;44.526;11.360;2023-04-24T07:08:07;16.40;73.50
5639;DHT22;2841;44.526;11.360;2023-04-24T07:10:36;16.50;73.50
5639;DHT22;2841;44.526;11.360;2023-04-24T07:13:03;16.50;73.40
5639;DHT22;2841;44.526;11.360;2023-04-24T07:15:30;16.60;73.40
5639;DHT22;2841;44.526;11.360;2023-04-24T07:17:57;16.80;73.70
5639;DHT22;2841;44.526;11.360;2023-04-24T07:20:24;16.90;73.50
5639;DHT22;2841;44.526;11.360;2023-04-24T07:22:52;17.00;73.40
5639;DHT22;2841;44.526;11.360;2023-04-24T07:25:20;17.10;73.40
5639;DHT22;2841;44.526;11.360;2023-04-24T07:27:46;17.20;73.60
5639;DHT22;2841;44.526;11.360;2023-04-24T07:30:14;17.20;73.50
5639;DHT22;2841;44.526;11.360;2023-04-24T07:32:41;17.20;73.60
5639;DHT22;2841;44.526;11.360;2023-04-24T07:35:08;17.20;73.90
5639;DHT22;2841;44.526;11.360;2023-04-24T07:37:35;17.10;73.80
5639;DHT22;2841;44.526;11.360;2023-04-24T07:40:03;17.10;74.00
5639;DHT22;2841;44.526;11.360;2023-04-24T07:42:30;17.10;74.00
5639;DHT22;2841;44.526;11.360;2023-04-24T07:44:59;17.10;73.90
5639;DHT22;2841;44.526;11.360;2023-04-24T07:47:26;17.10;73.90
5639;DHT22;2841;44.526;11.360;2023-04-24T07:49:53;17.20;74.10
5639;DHT22;2841;44.526;11.360;2023-04-24T07:52:20;17.20;74.20
5639;DHT22;2841;44.526;11.360;2023-04-24T07:54:47;17.10;74.10
5639;DHT22;2841;44.526;11.360;2023-04-24T07:57:16;17.10;74.20
5639;DHT22;2841;44.526;11.360;2023-04-24T07:59:43;17.10;74.30
5639;DHT22;2841;44.526;11.360;2023-04-24T08:02:09;17.10;74.30
5639;DHT22;2841;44.526;11.360;2023-04-24T08:04:37;17.10;74.20
5639;DHT22;2841;44.526;11.360;2023-04-24T08:07:03;17.20;74.40
5639;DHT22;2841;44.526;11.360;2023-04-24T08:09:30;17.30;74.40
5639;DHT22;2841;44.526;11.360;2023-04-24T08:11:57;17.40;74.20
5639;DHT22;2841;44.526;11.360;2023-04-24T08:14:25;17.40;73.80
5639;DHT22;2841;44.526;11.360;2023-04-24T08:16:53;17.50;74.00
5639;DHT22;2841;44.526;11.360;2023-04-24T08:19:20;17.70;73.90
5639;DHT22;2841;44.526;11.360;2023-04-24T08:21:46;17.80;73.70
5639;DHT22;2841;44.526;11.360;2023-04-24T08:24:13;18.00;73.50
5639;DHT22;2841;44.526;11.360;2023-04-24T08:26:40;18.00;73.20
5639;DHT22;2841;44.526;11.360;2023-04-24T08:29:07;18.20;73.10
5639;DHT22;2841;44.526;11.360;2023-04-24T08:31:35;18.30;73.00
5639;DHT22;2841;44.526;11.360;2023-04-24T08:34:01;18.40;72.80
5639;DHT22;2841;44.526;11.360;2023-04-24T08:36:28;18.50;72.50
5639;DHT22;2841;44.526;11.360;2023-04-24T08:38:55;18.50;72.00
5639;DHT22;2841;44.526;11.360;2023-04-24T08:41:22;18.50;72.30
5639;DHT22;2841;44.526;11.360;2023-04-24T08:43:51;18.60;72.70
5639;DHT22;2841;44.526;11.360;2023-04-24T08:46:18;18.70;72.90
5639;DHT22;2841;44.526;11.360;2023-04-24T08:48:46;18.90;72.80
5639;DHT22;2841;44.526;11.360;2023-04-24T08:51:13;19.00;72.70
5639;DHT22;2841;44.526;11.360;2023-04-24T08:53:40;19.10;72.70
5639;DHT22;2841;44.526;11.360;2023-04-24T08:56:07;19.30;72.20
5639;DHT22;2841;44.526;11.360;2023-04-24T08:58:33;19.30;72.10
5639;DHT22;2841;44.526;11.360;2023-04-24T09:01:01;19.40;71.80
5639;DHT22;2841;44.526;11.360;2023-04-24T09:03:29;19.60;71.50
5639;DHT22;2841;44.526;11.360;2023-04-24T09:05:57;19.80;71.10
5639;DHT22;2841;44.526;11.360;2023-04-24T09:08:25;19.70;69.70
5639;DHT22;2841;44.526;11.360;2023-04-24T09:10:52;19.60;68.90
5639;DHT22;2841;44.526;11.360;2023-04-24T09:13:19;19.50;69.40
5639;DHT22;2841;44.526;11.360;2023-04-24T09:15:46;19.40;69.50
5639;DHT22;2841;44.526;11.360;2023-04-24T09:18:13;19.20;69.30
5639;DHT22;2841;44.526;11.360;2023-04-24T09:23:22;18.80;70.50
5639;DHT22;2841;44.526;11.360;2023-04-24T09:25:49;18.50;71.80
5639;DHT22;2841;44.526;11.360;2023-04-24T09:28:22;18.20;73.00
5639;DHT22;2841;44.526;11.360;2023-04-24T09:31:01;17.90;73.70
5639;DHT22;2841;44.526;11.360;2023-04-24T09:33:29;17.50;75.10
5639;DHT22;2841;44.526;11.360;2023-04-24T09:35:55;17.20;75.90
5639;DHT22;2841;44.526;11.360;2023-04-24T09:38:31;17.10;76.50
5639;DHT22;2841;44.526;11.360;2023-04-24T09:40:59;17.00;77.10
5639;DHT22;2841;44.526;11.360;2023-04-24T09:43:26;17.00;77.50
5639;DHT22;2841;44.526;11.360;2023-04-24T09:45:55;17.10;77.80
5639;DHT22;2841;44.526;11.360;2023-04-24T09:48:29;17.10;77.80
5639;DHT22;2841;44.526;11.360;2023-04-24T09:50:56;17.30;77.40
5639;DHT22;2841;44.526;11.360;2023-04-24T09:53:23;17.50;77.10
5639;DHT22;2841;44.526;11.360;2023-04-24T09:55:51;17.50;76.60
5639;DHT22;2841;44.526;11.360;2023-04-24T09:58:18;17.60;76.40
5639;DHT22;2841;44.526;11.360;2023-04-24T10:00:53;17.80;76.30
5639;DHT22;2841;44.526;11.360;2023-04-24T10:03:19;18.00;76.00
5639;DHT22;2841;44.526;11.360;2023-04-24T10:05:46;18.20;75.60
5639;DHT22;2841;44.526;11.360;2023-04-24T10:08:13;18.40;75.10
5639;DHT22;2841;44.526;11.360;2023-04-24T10:10:41;18.50;73.40
5639;DHT22;2841;44.526;11.360;2023-04-24T10:13:10;18.60;70.70
5639;DHT22;2841;44.526;11.360;2023-04-24T10:15:37;18.60;71.90
5639;DHT22;2841;44.526;11.360;2023-04-24T10:18:04;18.90;71.00
5639;DHT22;2841;44.526;11.360;2023-04-24T10:20:32;19.30;70.30
5639;DHT22;2841;44.526;11.360;2023-04-24T10:22:59;19.70;69.80
5639;DHT22;2841;44.526;11.360;2023-04-24T10:25:26;19.90;69.70
5639;DHT22;2841;44.526;11.360;2023-04-24T10:27:53;19.80;69.10
5639;DHT22;2841;44.526;11.360;2023-04-24T10:30:24;19.70;68.80
5639;DHT22;2841;44.526;11.360;2023-04-24T10:32:51;19.50;68.10
5639;DHT22;2841;44.526;11.360;2023-04-24T10:35:18;19.30;68.50
5639;DHT22;2841;44.526;11.360;2023-04-24T10:37:45;19.10;68.80
5639;DHT22;2841;44.526;11.360;2023-04-24T10:40:16;19.10;69.20
5639;DHT22;2841;44.526;11.360;2023-04-24T10:42:43;19.20;69.40
5639;DHT22;2841;44.526;11.360;2023-04-24T10:45:16;19.30;68.80
5639;DHT22;2841;44.526;11.360;2023-04-24T10:47:44;19.50;68.90
5639;DHT22;2841;44.526;11.360;2023-04-24T10:50:17;19.50;67.90
5639;DHT22;2841;44.526;11.360;2023-04-24T10:52:43;19.60;68.50
5639;DHT22;2841;44.526;11.360;2023-04-24T10:55:10;19.90;68.30
5639;DHT22;2841;44.526;11.360;2023-04-24T10:57:38;20.20;68.00
5639;DHT22;2841;44.526;11.360;2023-04-24T11:02:54;20.60;67.50
5639;DHT22;2841;44.526;11.360;2023-04-24T11:05:22;20.80;67.40
5639;DHT22;2841;44.526;11.360;2023-04-24T11:10:37;21.00;66.80
5639;DHT22;2841;44.526;11.360;2023-04-24T11:13:04;21.00;66.80
5639;DHT22;2841;44.526;11.360;2023-04-24T11:15:30;21.10;66.80
5639;DHT22;2841;44.526;11.360;2023-04-24T11:17:59;21.20;67.00
5639;DHT22;2841;44.526;11.360;2023-04-24T11:20:25;21.30;66.80
5639;DHT22;2841;44.526;11.360;2023-04-24T11:22:52;21.50;66.70
5639;DHT22;2841;44.526;11.360;2023-04-24T11:25:20;21.60;67.40
5639;DHT22;2841;44.526;11.360;2023-04-24T11:27:48;21.80;66.90
5639;DHT22;2841;44.526;11.360;2023-04-24T11:30:17;21.90;66.60
5639;DHT22;2841;44.526;11.360;2023-04-24T11:32:47;22.00;66.00
5639;DHT22;2841;44.526;11.360;2023-04-24T11:35:17;22.00;65.80
5639;DHT22;2841;44.526;11.360;2023-04-24T11:37:44;22.10;65.50
5639;DHT22;2841;44.526;11.360;2023-04-24T11:40:12;22.20;64.40
5639;DHT22;2841;44.526;11.360;2023-04-24T11:42:41;22.20;62.90
5639;DHT22;2841;44.526;11.360;2023-04-24T11:45:09;22.10;63.00
5639;DHT22;2841;44.526;11.360;2023-04-24T11:47:36;22.20;63.60
5639;DHT22;2841;44.526;11.360;2023-04-24T11:50:04;22.50;63.10
5639;DHT22;2841;44.526;11.360;2023-04-24T11:52:33;22.80;62.80
5639;DHT22;2841;44.526;11.360;2023-04-24T11:54:59;23.10;62.50
5639;DHT22;2841;44.526;11.360;2023-04-24T11:57:26;23.30;62.00
5639;DHT22;2841;44.526;11.360;2023-04-24T11:59:58;23.40;61.30
5639;DHT22;2841;44.526;11.360;2023-04-24T12:02:25;23.10;61.20
5639;DHT22;2841;44.526;11.360;2023-04-24T12:04:52;23.20;61.10
5639;DHT22;2841;44.526;11.360;2023-04-24T12:07:19;23.10;61.10
5639;DHT22;2841;44.526;11.360;2023-04-24T12:09:50;23.20;60.90
5639;DHT22;2841;44.526;11.360;2023-04-24T12:12:20;23.40;60.60
5639;DHT22;2841;44.526;11.360;2023-04-24T12:14:52;23.50;59.70
5639;DHT22;2841;44.526;11.360;2023-04-24T12:17:23;23.30;59.90
5639;DHT22;2841;44.526;11.360;2023-04-24T12:19:50;23.60;60.40
5639;DHT22;2841;44.526;11.360;2023-04-24T12:22:17;24.00;59.80
5639;DHT22;2841;44.526;11.360;2023-04-24T12:24:57;24.10;59.10
5639;DHT22;2841;44.526;11.360;2023-04-24T12:27:25;24.10;58.10
5639;DHT22;2841;44.526;11.360;2023-04-24T12:29:52;24.20;59.20
5639;DHT22;2841;44.526;11.360;2023-04-24T12:32:19;24.30;58.50
5639;DHT22;2841;44.526;11.360;2023-04-24T12:34:46;24.70;58.50
5639;DHT22;2841;44.526;11.360;2023-04-24T12:37:13;24.80;57.80
5639;DHT22;2841;44.526;11.360;2023-04-24T12:39:42;24.80;57.70
5639;DHT22;2841;44.526;11.360;2023-04-24T12:42:12;24.80;57.30
5639;DHT22;2841;44.526;11.360;2023-04-24T12:44:39;24.30;57.10
5639;DHT22;2841;44.526;11.360;2023-04-24T12:47:06;23.80;57.30
5639;DHT22;2841;44.526;11.360;2023-04-24T12:49:32;23.60;58.00
5639;DHT22;2841;44.526;11.360;2023-04-24T12:51:59;23.70;58.00
5639;DHT22;2841;44.526;11.360;2023-04-24T12:54:26;23.90;57.70
5639;DHT22;2841;44.526;11.360;2023-04-24T12:56:58;23.70;57.70
5639;DHT22;2841;44.526;11.360;2023-04-24T12:59:27;23.60;57.90
5639;DHT22;2841;44.526;11.360;2023-04-24T13:01:53;24.00;58.10
5639;DHT22;2841;44.526;11.360;2023-04-24T13:04:20;24.40;57.60
5639;DHT22;2841;44.526;11.360;2023-04-24T13:06:47;24.60;57.20
5639;DHT22;2841;44.526;11.360;2023-04-24T13:09:13;24.20;57.50
5639;DHT22;2841;44.526;11.360;2023-04-24T13:11:40;23.70;58.00
5639;DHT22;2841;44.526;11.360;2023-04-24T13:14:07;23.70;58.30
5639;DHT22;2841;44.526;11.360;2023-04-24T13:16:35;24.10;58.20
5639;DHT22;2841;44.526;11.360;2023-04-24T13:19:02;24.50;58.00
5639;DHT22;2841;44.526;11.360;2023-04-24T13:21:29;24.90;57.60
5639;DHT22;2841;44.526;11.360;2023-04-24T13:23:56;25.10;56.90
5639;DHT22;2841;44.526;11.360;2023-04-24T13:26:22;25.10;57.00
5639;DHT22;2841;44.526;11.360;2023-04-24T13:28:49;24.80;57.10
5639;DHT22;2841;44.526;11.360;2023-04-24T13:31:16;24.80;57.40
5639;DHT22;2841;44.526;11.360;2023-04-24T13:33:44;24.90;57.20
5639;DHT22;2841;44.526;11.360;2023-04-24T13:36:10;25.00;57.00
5639;DHT22;2841;44.526;11.360;2023-04-24T13:38:37;25.30;56.60
5639;DHT22;2841;44.526;11.360;2023-04-24T13:41:04;25.50;56.30
5639;DHT22;2841;44.526;11.360;2023-04-24T13:43:31;25.60;55.90
5639;DHT22;2841;44.526;11.360;2023-04-24T13:45:57;25.70;55.00
5639;DHT22;2841;44.526;11.360;2023-04-24T13:48:27;25.50;54.70
5639;DHT22;2841;44.526;11.360;2023-04-24T13:50:55;25.20;54.70
5639;DHT22;2841;44.526;11.360;2023-04-24T13:53:22;24.90;55.30
5639;DHT22;2841;44.526;11.360;2023-04-24T13:55:49;25.20;55.40
5639;DHT22;2841;44.526;11.360;2023-04-24T13:58:16;25.40;55.10
5639;DHT22;2841;44.526;11.360;2023-04-24T14:00:42;25.30;55.00
5639;DHT22;2841;44.526;11.360;2023-04-24T14:03:09;24.80;55.00
5639;DHT22;2841;44.526;11.360;2023-04-24T14:05:36;24.20;55.40
5639;DHT22;2841;44.526;11.360;2023-04-24T14:08:04;24.10;55.80
5639;DHT22;2841;44.526;11.360;2023-04-24T14:10:31;24.60;55.70
5639;DHT22;2841;44.526;11.360;2023-04-24T14:12:58;25.20;55.20
5639;DHT22;2841;44.526;11.360;2023-04-24T14:15:25;25.90;54.60
5639;DHT22;2841;44.526;11.360;2023-04-24T14:17:51;26.40;52.90
5639;DHT22;2841;44.526;11.360;2023-04-24T14:20:18;26.40;52.40
5639;DHT22;2841;44.526;11.360;2023-04-24T14:22:45;26.50;52.30
5639;DHT22;2841;44.526;11.360;2023-04-24T14:25:13;26.60;51.90
5639;DHT22;2841;44.526;11.360;2023-04-24T14:27:40;26.80;51.90
5639;DHT22;2841;44.526;11.360;2023-04-24T14:30:08;27.10;51.50
5639;DHT22;2841;44.526;11.360;2023-04-24T14:32:34;27.60;51.30
5639;DHT22;2841;44.526;11.360;2023-04-24T14:35:02;27.80;50.70
5639;DHT22;2841;44.526;11.360;2023-04-24T14:37:28;28.10;50.40
5639;DHT22;2841;44.526;11.360;2023-04-24T14:39:55;28.40;50.30
5639;DHT22;2841;44.526;11.360;2023-04-24T14:42:23;28.50;50.00
5639;DHT22;2841;44.526;11.360;2023-04-24T14:44:50;28.30;50.30
5639;DHT22;2841;44.526;11.360;2023-04-24T14:47:17;27.60;50.80
5639;DHT22;2841;44.526;11.360;2023-04-24T14:49:46;26.90;51.60
5639;DHT22;2841;44.526;11.360;2023-04-24T14:52:13;26.70;52.20
5639;DHT22;2841;44.526;11.360;2023-04-24T14:54:40;27.10;52.00
5639;DHT22;2841;44.526;11.360;2023-04-24T14:57:06;27.80;51.30
5639;DHT22;2841;44.526;11.360;2023-04-24T14:59:36;28.40;50.00
5639;DHT22;2841;44.526;11.360;2023-04-24T15:02:03;28.60;49.70
5639;DHT22;2841;44.526;11.360;2023-04-24T15:04:30;27.90;49.80
5639;DHT22;2841;44.526;11.360;2023-04-24T15:06:57;26.80;51.00
5639;DHT22;2841;44.526;11.360;2023-04-24T15:09:23;26.00;52.10
5639;DHT22;2841;44.526;11.360;2023-04-24T15:11:51;25.50;52.70
5639;DHT22;2841;44.526;11.360;2023-04-24T15:14:18;25.20;53.20
5639;DHT22;2841;44.526;11.360;2023-04-24T15:16:46;25.00;53.50
5639;DHT22;2841;44.526;11.360;2023-04-24T15:19:13;25.10;53.50
5639;DHT22;2841;44.526;11.360;2023-04-24T15:21:39;25.00;53.50
5639;DHT22;2841;44.526;11.360;2023-04-24T15:24:07;24.80;54.40
5639;DHT22;2841;44.526;11.360;2023-04-24T15:26:34;24.50;54.10
5639;DHT22;2841;44.526;11.360;2023-04-24T15:29:01;24.20;54.40
5639;DHT22;2841;44.526;11.360;2023-04-24T15:31:28;23.90;54.60
5639;DHT22;2841;44.526;11.360;2023-04-24T15:33:56;23.60;55.00
5639;DHT22;2841;44.526;11.360;2023-04-24T15:36:22;23.40;55.10
5639;DHT22;2841;44.526;11.360;2023-04-24T15:38:49;23.70;55.30
5639;DHT22;2841;44.526;11.360;2023-04-24T15:41:16;24.50;54.80
5639;DHT22;2841;44.526;11.360;2023-04-24T15:43:43;25.60;54.10
5639;DHT22;2841;44.526;11.360;2023-04-24T15:46:09;26.70;52.80
5639;DHT22;2841;44.526;11.360;2023-04-24T15:48:36;27.20;52.00
5639;DHT22;2841;44.526;11.360;2023-04-24T15:51:07;26.40;52.50
5639;DHT22;2841;44.526;11.360;2023-04-24T15:53:34;25.40;53.80